Time;durP1;ratioP1;P1;durP2;ratioP2;P2;SDS_P1;SDS_P2;PMS_P1;PMS_P2;Temp;Humidity;BMP_temperature;BMP_pressure;BME280_temperature;BME280_humidity;BME280_pressure;Samples;Min_cycle;Max_cycle;Signal;HPM_P1;HPM_P2
2023/01/22 00:00:03;;;;;;;17.50;10.07;;;-1.50;99.90;;;;;;5028988;28;20505;-72
2023/01/22 00:02:29;;;;;;;15.55;10.07;;;-1.50;99.90;;;;;;5029779;28;20045;-72
2023/01/22 00:04:55;;;;;;;17.38;10.43;;;-1.60;99.90;;;;;;5028456;28;20046;-72
2023/01/22 00:07:21;;;;;;;18.88;10.93;;;-1.60;99.90;;;;;;5030290;28;20044;-72
2023/01/22 00:09:46;;;;;;;18.67;10.50;;;-1.70;99.90;;;;;;5029634;28;20556;-71
2023/01/22 00:12:12;;;;;;;19.98;10.50;;;-1.70;99.90;;;;;;5029559;28;20038;-71
2023/01/22 00:14:39;;;;;;;16.63;9.80;;;-1.70;99.90;;;;;;5029725;28;20045;-71
2023/01/22 00:17:08;;;;;;;13.37;7.80;;;-1.80;99.90;;;;;;5029113;28;20084;-71
2023/01/22 00:19:36;;;;;;;19.85;10.80;;;-1.80;99.90;;;;;;5029727;28;20150;-71
2023/01/22 00:22:06;;;;;;;16.63;9.55;;;-1.90;99.90;;;;;;5029507;28;20508;-71
2023/01/22 00:24:33;;;;;;;16.63;10.13;;;-1.90;99.90;;;;;;5028175;28;20401;-71
2023/01/22 00:26:59;;;;;;;18.27;10.88;;;-2.00;99.90;;;;;;5028403;28;20063;-71
2023/01/22 00:29:25;;;;;;;16.90;9.73;;;-2.00;99.90;;;;;;5028679;28;20045;-71
2023/01/22 00:31:52;;;;;;;16.58;10.10;;;-2.00;99.90;;;;;;5029734;28;20589;-71
2023/01/22 00:34:21;;;;;;;17.23;10.45;;;-2.00;99.90;;;;;;5030214;28;20434;-71
2023/01/22 00:36:50;;;;;;;20.17;11.25;;;-2.10;99.90;;;;;;5029571;28;20080;-71
2023/01/22 00:39:16;;;;;;;19.88;11.65;;;-2.20;99.90;;;;;;5028304;28;20045;-71
2023/01/22 00:41:42;;;;;;;15.93;9.73;;;-2.20;99.90;;;;;;5029754;28;20121;-71
2023/01/22 00:44:08;;;;;;;17.08;10.57;;;-2.20;99.90;;;;;;5009280;28;20501;-71
2023/01/22 00:46:35;;;;;;;17.23;10.18;;;-2.30;99.90;;;;;;5025628;28;20045;-71
2023/01/22 00:49:02;;;;;;;17.05;10.65;;;-2.20;99.90;;;;;;4996028;28;20144;-71
2023/01/22 00:51:30;;;;;;;17.75;10.00;;;-2.20;99.90;;;;;;5012460;28;20037;-71
2023/01/22 00:53:56;;;;;;;21.98;11.60;;;-2.30;99.90;;;;;;5011991;28;20124;-71
2023/01/22 00:56:23;;;;;;;22.33;11.55;;;-2.30;99.90;;;;;;5029298;28;20064;-71
2023/01/22 00:58:49;;;;;;;18.77;10.68;;;-2.30;99.90;;;;;;5012195;28;20037;-71
2023/01/22 01:01:16;;;;;;;24.02;12.57;;;-2.30;99.90;;;;;;5012197;28;20133;-71
2023/01/22 01:03:46;;;;;;;17.73;10.63;;;-2.20;99.90;;;;;;5044242;28;20288;-71
2023/01/22 01:06:21;;;;;;;20.92;11.02;;;-2.20;99.90;;;;;;5028228;28;20056;-71
2023/01/22 01:08:49;;;;;;;17.98;10.77;;;-2.20;99.90;;;;;;5020616;28;20116;-71
2023/01/22 01:11:20;;;;;;;21.38;10.57;;;-2.20;99.90;;;;;;5011910;28;20053;-71
2023/01/22 01:13:46;;;;;;;17.17;10.10;;;-2.20;99.90;;;;;;5028202;28;20045;-71
2023/01/22 01:16:18;;;;;;;14.48;9.68;;;-2.20;99.90;;;;;;5028261;28;20110;-71
2023/01/22 01:18:47;;;;;;;17.08;10.70;;;-2.20;99.90;;;;;;5021130;28;20041;-71
2023/01/22 01:21:18;;;;;;;16.50;10.48;;;-2.20;99.90;;;;;;5006877;28;20482;-70
2023/01/22 01:23:45;;;;;;;21.25;11.23;;;-2.20;99.90;;;;;;5022379;28;20038;-70
2023/01/22 01:26:15;;;;;;;17.35;9.68;;;-2.10;99.90;;;;;;5026451;28;20041;-70
2023/01/22 01:28:44;;;;;;;20.58;11.35;;;-2.10;99.90;;;;;;5011284;28;20494;-70
2023/01/22 01:31:16;;;;;;;19.35;9.93;;;-2.10;99.90;;;;;;5028907;28;20053;-71
2023/01/22 01:33:43;;;;;;;19.23;10.25;;;-2.10;99.90;;;;;;5012722;28;20528;-71
2023/01/22 01:36:11;;;;;;;17.95;10.70;;;-2.10;99.90;;;;;;5010952;28;20750;-71
2023/01/22 01:38:37;;;;;;;18.05;10.02;;;-2.10;99.90;;;;;;5028386;28;20046;-71
2023/01/22 01:41:06;;;;;;;20.55;11.23;;;-2.10;99.90;;;;;;5021697;28;20045;-71
2023/01/22 01:43:33;;;;;;;17.17;9.57;;;-2.00;99.90;;;;;;5026097;28;20053;-71
2023/01/22 01:46:03;;;;;;;19.17;11.07;;;-2.00;99.90;;;;;;5020663;28;20050;-71
2023/01/22 01:48:33;;;;;;;19.40;10.15;;;-2.00;99.90;;;;;;5029036;28;20272;-70
2023/01/22 01:51:38;;;;;;;20.88;11.60;;;-2.00;99.90;;;;;;5031418;28;20164;-70
2023/01/22 01:54:05;;;;;;;19.20;10.32;;;-2.00;99.90;;;;;;4951483;28;20066;-70
2023/01/22 01:56:43;;;;;;;17.40;10.60;;;-1.90;99.90;;;;;;4970957;28;20061;-70
2023/01/22 01:59:14;;;;;;;22.52;12.52;;;-1.90;99.90;;;;;;4964496;28;20050;-70
2023/01/22 02:01:40;;;;;;;16.48;10.73;;;-1.90;99.90;;;;;;4955495;28;20746;-70
2023/01/22 02:04:07;;;;;;;15.75;10.18;;;-1.90;99.90;;;;;;4967247;28;20057;-70
2023/01/22 02:06:37;;;;;;;18.63;10.45;;;-1.90;99.90;;;;;;4982445;28;20085;-70
2023/01/22 02:09:05;;;;;;;18.60;10.55;;;-1.90;99.90;;;;;;4958165;28;20046;-70
2023/01/22 02:11:32;;;;;;;15.65;9.20;;;-1.90;99.90;;;;;;4974678;28;20096;-70
2023/01/22 02:14:10;;;;;;;18.42;10.20;;;-1.90;99.90;;;;;;4990209;28;20057;-70
2023/01/22 02:16:38;;;;;;;19.20;10.93;;;-1.90;99.90;;;;;;4942977;28;20077;-70
2023/01/22 02:19:08;;;;;;;18.27;10.60;;;-2.00;99.90;;;;;;4990426;28;20084;-70
2023/01/22 02:21:42;;;;;;;19.65;11.00;;;-2.00;99.90;;;;;;4974973;28;20108;-70
2023/01/22 02:24:13;;;;;;;19.67;11.68;;;-2.00;99.90;;;;;;4983937;28;20060;-70
2023/01/22 02:26:45;;;;;;;20.35;11.23;;;-2.00;99.90;;;;;;5031960;28;20053;-70
2023/01/22 02:29:13;;;;;;;19.42;11.32;;;-2.00;99.90;;;;;;5014721;28;20038;-70
2023/01/22 02:31:41;;;;;;;19.70;11.07;;;-2.00;99.90;;;;;;5014429;28;20073;-70
2023/01/22 02:34:12;;;;;;;19.23;11.02;;;-2.00;99.90;;;;;;5031107;28;20052;-70
2023/01/22 02:36:39;;;;;;;20.73;10.82;;;-2.10;99.90;;;;;;4998485;28;20147;-70
2023/01/22 02:39:08;;;;;;;19.40;10.98;;;-2.10;99.90;;;;;;5029991;28;20083;-69
2023/01/22 02:41:35;;;;;;;23.65;12.45;;;-2.20;99.90;;;;;;5031907;28;20052;-69
2023/01/22 02:44:02;;;;;;;24.23;11.82;;;-2.20;99.90;;;;;;5014181;28;20061;-69
2023/01/22 02:46:31;;;;;;;24.75;12.68;;;-2.20;99.90;;;;;;5030343;28;20045;-69
2023/01/22 02:49:00;;;;;;;27.55;14.10;;;-2.20;99.90;;;;;;5006370;28;20045;-69
2023/01/22 02:51:28;;;;;;;23.88;13.20;;;-2.10;99.90;;;;;;5026261;28;20379;-69
2023/01/22 02:53:54;;;;;;;25.55;13.40;;;-2.00;99.90;;;;;;4994989;28;20103;-69
2023/01/22 02:56:21;;;;;;;24.27;13.88;;;-2.00;99.90;;;;;;5027837;28;20430;-69
2023/01/22 02:58:47;;;;;;;26.83;12.98;;;-1.90;99.90;;;;;;5029958;28;20478;-69
2023/01/22 03:01:22;;;;;;;30.13;12.95;;;-1.80;99.90;;;;;;5028055;28;20047;-69
2023/01/22 03:03:57;;;;;;;23.90;13.05;;;-1.80;99.90;;;;;;5037017;28;20053;-69
2023/01/22 03:06:30;;;;;;;28.52;14.55;;;-1.70;99.90;;;;;;5050358;28;20401;-69
2023/01/22 03:09:03;;;;;;;29.63;14.82;;;-1.60;99.90;;;;;;5019543;28;20426;-69
2023/01/22 03:11:32;;;;;;;23.70;13.27;;;-1.50;99.90;;;;;;5051555;28;20098;-69
2023/01/22 03:22:17;;;;;;;23.38;12.70;;;-1.30;99.90;;;;;;5022367;28;20083;-69
2023/01/22 03:24:51;;;;;;;26.98;12.40;;;-1.20;99.90;;;;;;5043293;28;20037;-69
2023/01/22 03:27:23;;;;;;;22.55;12.65;;;-1.10;99.90;;;;;;5032806;28;20044;-69
2023/01/22 03:29:51;;;;;;;28.00;13.52;;;-1.10;99.90;;;;;;5033078;28;20090;-69
2023/01/22 03:32:27;;;;;;;28.38;13.38;;;-1.00;99.90;;;;;;5034555;28;20045;-69
2023/01/22 03:34:53;;;;;;;22.00;13.00;;;-0.90;99.90;;;;;;5031991;28;20128;-69
2023/01/22 03:37:20;;;;;;;24.85;12.32;;;-0.80;99.90;;;;;;5033376;28;20041;-69
2023/01/22 03:39:46;;;;;;;24.88;11.88;;;-0.80;99.90;;;;;;5033193;28;20045;-69
2023/01/22 03:42:16;;;;;;;23.90;12.48;;;-0.70;99.90;;;;;;5016215;28;20055;-69
2023/01/22 03:44:43;;;;;;;24.05;12.40;;;-0.60;99.90;;;;;;5032934;28;20493;-69
2023/01/22 03:47:11;;;;;;;25.92;12.38;;;-0.60;99.90;;;;;;5050448;28;20229;-69
2023/01/22 03:49:37;;;;;;;24.90;13.02;;;-0.60;99.90;;;;;;5016596;28;20477;-69
2023/01/22 03:52:03;;;;;;;25.67;12.18;;;-0.50;99.90;;;;;;5016589;28;20041;-69
2023/01/22 03:54:37;;;;;;;19.33;11.27;;;-0.50;99.90;;;;;;5050179;28;20448;-69
2023/01/22 03:57:05;;;;;;;19.92;11.80;;;-0.40;99.90;;;;;;5016425;28;20119;-69
2023/01/22 03:59:38;;;;;;;23.75;12.77;;;-0.40;99.90;;;;;;5024321;28;20041;-69
2023/01/22 04:02:04;;;;;;;24.25;12.30;;;-0.40;99.90;;;;;;5032153;28;20585;-69
2023/01/22 04:04:30;;;;;;;24.17;12.32;;;-0.40;99.90;;;;;;5050045;28;20179;-69
2023/01/22 04:06:58;;;;;;;20.73;11.25;;;-0.40;99.90;;;;;;5050236;28;20045;-69
2023/01/22 04:09:29;;;;;;;16.13;8.75;;;-0.30;99.90;;;;;;5050093;28;20040;-69
2023/01/22 04:11:59;;;;;;;23.25;11.82;;;-0.30;99.90;;;;;;5015702;28;20057;-69
2023/01/22 04:14:29;;;;;;;23.83;12.02;;;-0.30;99.90;;;;;;5050278;28;20116;-69
2023/01/22 04:17:01;;;;;;;23.20;11.07;;;-0.20;99.90;;;;;;5032834;28;20462;-69
2023/01/22 04:19:28;;;;;;;23.10;12.15;;;-0.20;99.90;;;;;;5032440;28;20440;-69
2023/01/22 04:21:55;;;;;;;25.63;12.45;;;-0.20;99.90;;;;;;5031863;28;20036;-69
2023/01/22 04:24:22;;;;;;;24.67;12.02;;;-0.10;99.90;;;;;;5031742;28;20056;-69
2023/01/22 04:26:49;;;;;;;19.95;11.35;;;-0.10;99.90;;;;;;5031858;28;20497;-69
2023/01/22 04:29:15;;;;;;;22.48;12.18;;;-0.10;99.90;;;;;;5031373;28;20037;-69
2023/01/22 04:31:45;;;;;;;22.45;10.85;;;0.00;99.90;;;;;;5016364;28;20119;-69
2023/01/22 04:34:12;;;;;;;23.55;11.43;;;0.00;99.90;;;;;;5031971;28;20401;-69
2023/01/22 04:36:40;;;;;;;16.90;10.82;;;0.00;99.90;;;;;;5031390;28;20056;-69
2023/01/22 04:39:07;;;;;;;23.90;11.70;;;0.10;99.90;;;;;;5032115;28;20460;-69
2023/01/22 04:41:34;;;;;;;20.48;10.85;;;0.10;99.90;;;;;;5049760;28;20044;-69
2023/01/22 04:44:01;;;;;;;17.88;10.60;;;0.10;99.90;;;;;;5015256;28;20040;-69
2023/01/22 04:46:42;;;;;;;20.45;10.77;;;0.20;99.90;;;;;;5049853;28;20033;-69
2023/01/22 04:49:08;;;;;;;19.23;10.25;;;0.20;99.90;;;;;;5049927;28;20115;-69
2023/01/22 04:51:34;;;;;;;21.60;10.30;;;0.20;99.90;;;;;;5031483;28;20037;-69
2023/01/22 04:54:02;;;;;;;19.33;10.23;;;0.30;99.90;;;;;;5049842;28;20041;-69
2023/01/22 04:56:31;;;;;;;17.50;9.70;;;0.30;99.90;;;;;;5031797;28;20163;-69
2023/01/22 04:58:57;;;;;;;18.42;9.20;;;0.30;99.90;;;;;;5049168;28;20481;-69
2023/01/22 05:01:24;;;;;;;16.67;9.80;;;0.30;99.90;;;;;;5031711;28;20052;-69
2023/01/22 05:03:50;;;;;;;20.08;9.45;;;0.30;99.90;;;;;;5031071;28;20053;-69
2023/01/22 05:06:19;;;;;;;15.75;8.82;;;0.30;99.90;;;;;;5032142;28;20052;-69
2023/01/22 05:08:47;;;;;;;14.95;8.50;;;0.30;99.90;;;;;;5031892;28;20091;-69
2023/01/22 05:11:13;;;;;;;15.38;8.70;;;0.40;99.90;;;;;;5037338;28;20041;-69
2023/01/22 05:13:39;;;;;;;15.60;8.70;;;0.40;99.90;;;;;;5015608;28;20048;-69
2023/01/22 05:16:05;;;;;;;13.93;7.93;;;0.40;99.90;;;;;;5015351;28;20608;-69
2023/01/22 05:18:31;;;;;;;15.98;8.02;;;0.40;99.90;;;;;;5031093;28;20040;-69
2023/01/22 05:20:57;;;;;;;14.45;8.23;;;0.50;99.90;;;;;;5031725;28;20040;-69
2023/01/22 05:23:24;;;;;;;13.25;6.97;;;0.50;99.90;;;;;;5015879;28;20154;-69
2023/01/22 05:25:51;;;;;;;13.77;7.28;;;0.50;99.90;;;;;;5034959;28;20049;-69
2023/01/22 05:28:19;;;;;;;16.23;7.50;;;0.50;99.90;;;;;;5019308;28;20102;-69
2023/01/22 05:30:48;;;;;;;14.07;7.80;;;0.50;99.90;;;;;;5018890;28;20072;-69
2023/01/22 05:33:15;;;;;;;11.90;6.70;;;0.50;99.90;;;;;;5018703;28;20048;-69
2023/01/22 05:35:41;;;;;;;14.95;7.10;;;0.50;99.90;;;;;;5018914;28;20540;-69
2023/01/22 05:38:08;;;;;;;13.45;6.50;;;0.60;99.90;;;;;;5035427;28;20037;-69
2023/01/22 05:40:38;;;;;;;11.32;6.75;;;0.60;99.90;;;;;;5035080;28;20355;-69
2023/01/22 05:43:04;;;;;;;10.50;6.35;;;0.60;99.90;;;;;;5034149;28;20566;-70
2023/01/22 05:45:34;;;;;;;11.70;6.28;;;0.60;99.90;;;;;;5053103;28;20033;-70
2023/01/22 05:48:03;;;;;;;13.65;6.53;;;0.60;99.90;;;;;;5034671;28;20041;-70
2023/01/22 05:50:32;;;;;;;12.57;6.20;;;0.70;99.90;;;;;;5019552;28;20048;-70
2023/01/22 05:53:04;;;;;;;11.25;5.70;;;0.70;99.90;;;;;;5034719;28;20064;-70
2023/01/22 05:55:34;;;;;;;10.98;5.72;;;0.70;99.90;;;;;;5036057;28;20045;-70
2023/01/22 05:58:02;;;;;;;9.00;5.88;;;0.70;99.90;;;;;;5018115;28;20049;-70
2023/01/22 06:00:30;;;;;;;10.88;5.60;;;0.70;99.90;;;;;;5034416;28;20474;-70
2023/01/22 06:03:02;;;;;;;9.93;5.90;;;0.70;99.90;;;;;;5052535;28;20412;-69
2023/01/22 06:05:29;;;;;;;8.93;6.35;;;0.70;99.90;;;;;;5026573;28;20056;-70
2023/01/22 06:07:56;;;;;;;8.65;5.45;;;0.70;99.90;;;;;;5033770;28;20067;-70
2023/01/22 06:10:27;;;;;;;9.68;6.75;;;0.80;99.90;;;;;;5018873;28;20505;-70
2023/01/22 06:12:54;;;;;;;12.30;6.22;;;0.80;99.90;;;;;;5051776;28;20473;-70
2023/01/22 06:15:30;;;;;;;10.77;6.03;;;0.80;99.90;;;;;;5052072;28;20049;-70
2023/01/22 06:18:00;;;;;;;8.68;5.70;;;0.80;99.90;;;;;;5052637;28;20515;-70
2023/01/22 06:20:28;;;;;;;8.88;5.50;;;0.80;99.90;;;;;;5034887;28;20115;-70
2023/01/22 06:22:58;;;;;;;9.48;6.05;;;0.80;99.90;;;;;;5051725;28;20055;-70
2023/01/22 06:25:25;;;;;;;7.93;5.88;;;0.90;99.90;;;;;;5052476;28;20187;-70
2023/01/22 06:27:51;;;;;;;9.93;6.03;;;0.90;99.90;;;;;;5033886;28;20037;-70
2023/01/22 06:30:18;;;;;;;11.07;6.00;;;0.90;99.90;;;;;;5048447;28;20212;-70
2023/01/22 06:32:45;;;;;;;11.45;6.20;;;0.90;99.90;;;;;;5051026;28;20393;-70
2023/01/22 06:35:14;;;;;;;8.25;6.03;;;0.90;99.90;;;;;;5049867;28;20251;-70
2023/01/22 06:37:43;;;;;;;9.80;5.90;;;0.90;99.90;;;;;;5034873;28;20056;-70
2023/01/22 06:40:12;;;;;;;8.82;6.28;;;0.90;99.90;;;;;;5018379;28;20366;-70
2023/01/22 06:42:39;;;;;;;11.73;5.55;;;0.90;99.90;;;;;;5033799;28;20049;-70
2023/01/22 06:45:06;;;;;;;9.32;5.80;;;0.90;99.90;;;;;;5034087;28;20623;-70
2023/01/22 06:47:32;;;;;;;11.52;6.32;;;0.90;99.90;;;;;;5034202;28;20478;-70
2023/01/22 06:50:17;;;;;;;9.32;5.57;;;0.90;99.90;;;;;;5036290;28;20045;-70
2023/01/22 06:52:49;;;;;;;10.00;5.90;;;0.90;99.90;;;;;;5051980;28;20041;-70
2023/01/22 06:55:15;;;;;;;6.97;5.30;;;0.90;99.90;;;;;;5042799;28;20044;-70
2023/01/22 06:57:41;;;;;;;9.23;5.70;;;0.90;99.90;;;;;;5016713;28;20052;-70
2023/01/22 07:00:07;;;;;;;10.77;5.90;;;0.90;99.90;;;;;;5051791;28;20044;-70
2023/01/22 07:02:36;;;;;;;12.23;6.82;;;0.90;99.90;;;;;;5051361;28;20044;-70
2023/01/22 07:05:07;;;;;;;9.60;5.97;;;0.90;99.90;;;;;;5016190;28;20098;-71
2023/01/22 07:07:35;;;;;;;10.60;6.65;;;0.90;99.90;;;;;;5010674;28;20456;-70
2023/01/22 07:10:02;;;;;;;10.20;6.28;;;0.90;99.90;;;;;;5017181;28;20039;-70
2023/01/22 07:12:30;;;;;;;12.27;6.65;;;0.90;99.90;;;;;;5033768;28;20369;-70
2023/01/22 07:15:14;;;;;;;10.40;5.90;;;0.90;99.90;;;;;;5036716;28;20107;-70
2023/01/22 07:17:50;;;;;;;12.52;6.68;;;0.90;99.90;;;;;;5050964;28;20033;-70
2023/01/22 07:20:20;;;;;;;11.30;6.63;;;0.90;99.90;;;;;;5033250;28;20072;-70
2023/01/22 07:22:57;;;;;;;11.30;6.55;;;0.90;99.90;;;;;;5041745;28;20098;-70
2023/01/22 07:25:24;;;;;;;8.75;6.38;;;0.90;99.90;;;;;;5032705;28;20485;-70
2023/01/22 07:27:59;;;;;;;12.45;6.57;;;0.90;99.90;;;;;;5051243;28;20664;-70
2023/01/22 07:30:45;;;;;;;7.68;6.03;;;0.90;99.90;;;;;;5050952;28;20052;-70
2023/01/22 07:33:14;;;;;;;13.05;6.38;;;0.90;99.90;;;;;;5050249;28;20167;-70
2023/01/22 07:35:40;;;;;;;9.50;5.78;;;0.90;99.90;;;;;;5017003;28;20053;-70
2023/01/22 07:38:23;;;;;;;12.20;5.85;;;0.90;99.90;;;;;;5048420;28;20501;-70
2023/01/22 07:40:50;;;;;;;11.27;5.82;;;0.90;99.90;;;;;;5023710;28;20539;-70
2023/01/22 07:43:16;;;;;;;10.65;5.65;;;0.90;99.90;;;;;;5031583;28;20113;-70
2023/01/22 07:45:43;;;;;;;7.47;5.57;;;1.00;99.90;;;;;;5049801;28;20501;-70
2023/01/22 07:48:17;;;;;;;7.53;5.82;;;1.00;99.90;;;;;;5032698;28;20116;-71
2023/01/22 07:50:44;;;;;;;10.63;5.97;;;0.90;99.90;;;;;;5017390;28;20064;-70
2023/01/22 07:53:12;;;;;;;9.95;5.65;;;0.90;99.90;;;;;;5049804;28;20039;-71
2023/01/22 07:55:41;;;;;;;8.05;5.68;;;0.90;99.90;;;;;;5031987;28;20393;-71
2023/01/22 07:58:07;;;;;;;8.00;5.55;;;0.90;99.90;;;;;;5050484;28;20090;-71
2023/01/22 08:00:39;;;;;;;9.05;5.45;;;1.00;99.90;;;;;;5032063;28;20106;-71
2023/01/22 08:03:09;;;;;;;9.98;5.03;;;0.90;99.90;;;;;;5050179;28;20091;-71
2023/01/22 08:05:40;;;;;;;7.47;5.60;;;0.90;99.90;;;;;;5032233;28;20662;-71
2023/01/22 08:08:19;;;;;;;9.68;5.60;;;0.90;99.90;;;;;;5049413;28;20041;-71
2023/01/22 08:10:46;;;;;;;9.45;6.03;;;0.90;99.90;;;;;;5050123;28;20114;-71
2023/01/22 08:13:18;;;;;;;10.60;6.20;;;0.90;99.90;;;;;;5046750;28;20049;-71
2023/01/22 08:15:48;;;;;;;12.20;5.97;;;0.90;99.90;;;;;;5043086;28;20059;-71
2023/01/22 08:18:17;;;;;;;18.40;7.22;;;0.90;99.90;;;;;;5032666;28;20048;-71
2023/01/22 08:20:43;;;;;;;7.75;5.90;;;0.90;99.90;;;;;;5048334;28;20080;-71
2023/01/22 08:23:09;;;;;;;15.05;7.10;;;0.90;99.90;;;;;;5031876;28;20076;-71
2023/01/22 08:25:35;;;;;;;9.35;5.68;;;0.80;99.90;;;;;;5049975;28;20048;-71
2023/01/22 08:28:03;;;;;;;9.38;6.38;;;0.80;99.90;;;;;;5022925;28;20087;-71
2023/01/22 08:30:30;;;;;;;11.20;6.35;;;0.80;99.90;;;;;;5030537;28;20481;-71
2023/01/22 08:32:56;;;;;;;9.80;5.93;;;0.80;99.90;;;;;;5042845;28;20094;-71
2023/01/22 08:35:22;;;;;;;10.27;6.05;;;0.80;99.90;;;;;;5049544;28;20048;-70
2023/01/22 08:37:48;;;;;;;8.73;6.78;;;0.80;99.90;;;;;;5050061;28;20054;-71
2023/01/22 08:40:14;;;;;;;9.38;6.22;;;0.80;99.90;;;;;;5023777;28;20041;-71
2023/01/22 08:42:40;;;;;;;8.63;6.03;;;0.80;99.90;;;;;;5049734;28;20037;-71
2023/01/22 08:45:07;;;;;;;8.20;6.25;;;0.80;99.90;;;;;;5032050;28;20067;-71
2023/01/22 08:47:33;;;;;;;15.45;7.43;;;0.80;99.90;;;;;;5041658;28;20033;-71
2023/01/22 08:50:08;;;;;;;12.48;6.72;;;0.80;99.90;;;;;;5048515;28;20086;-71
2023/01/22 08:52:34;;;;;;;11.15;6.72;;;0.90;99.90;;;;;;5032659;28;20486;-71
2023/01/22 08:55:00;;;;;;;9.02;6.45;;;0.80;99.90;;;;;;5031878;28;20107;-71
2023/01/22 08:57:26;;;;;;;10.60;6.60;;;0.90;99.90;;;;;;5050203;28;20528;-71
2023/01/22 08:59:51;;;;;;;10.82;7.22;;;0.90;99.90;;;;;;5043416;28;20041;-71
2023/01/22 09:02:17;;;;;;;11.85;7.45;;;0.90;99.90;;;;;;5035474;28;20131;-72
2023/01/22 09:04:44;;;;;;;8.55;6.47;;;0.90;99.90;;;;;;5053611;28;20064;-72
2023/01/22 09:07:09;;;;;;;12.38;6.90;;;0.90;99.90;;;;;;5053413;28;20079;-72
2023/01/22 09:09:36;;;;;;;11.45;7.20;;;1.00;99.90;;;;;;5035551;28;20076;-72
2023/01/22 09:12:01;;;;;;;12.05;7.65;;;1.00;99.90;;;;;;5036054;28;20048;-72
2023/01/22 09:14:27;;;;;;;12.95;6.88;;;0.90;99.90;;;;;;5036152;28;20041;-72
2023/01/22 09:16:53;;;;;;;12.60;7.55;;;0.90;99.90;;;;;;5043604;28;20068;-72
2023/01/22 09:19:19;;;;;;;11.82;6.70;;;0.90;99.90;;;;;;5053630;28;20044;-72
2023/01/22 09:21:45;;;;;;;11.13;7.70;;;0.90;99.90;;;;;;5053649;28;20045;-73
2023/01/22 09:24:11;;;;;;;11.48;7.18;;;0.90;99.90;;;;;;5035168;28;20048;-72
2023/01/22 09:26:37;;;;;;;11.55;7.40;;;0.90;99.90;;;;;;5035708;28;20029;-73
2023/01/22 09:29:04;;;;;;;11.73;7.40;;;1.00;99.90;;;;;;5035700;28;20044;-72
2023/01/22 09:31:35;;;;;;;13.10;7.70;;;1.00;99.90;;;;;;5025499;28;20064;-72
2023/01/22 09:34:02;;;;;;;9.45;7.00;;;1.00;99.90;;;;;;5043909;28;20055;-72
2023/01/22 09:36:28;;;;;;;13.10;7.82;;;1.00;99.90;;;;;;5035108;28;20040;-72
2023/01/22 09:38:55;;;;;;;14.70;8.30;;;1.00;99.90;;;;;;5052885;28;20035;-72
2023/01/22 09:41:28;;;;;;;13.52;8.55;;;1.00;99.90;;;;;;5035443;28;20098;-72
2023/01/22 09:44:06;;;;;;;14.27;8.50;;;1.00;99.90;;;;;;5053214;28;20072;-72
2023/01/22 09:46:47;;;;;;;13.10;8.93;;;1.00;99.90;;;;;;5033049;28;20366;-72
2023/01/22 09:49:35;;;;;;;10.75;8.35;;;1.00;99.90;;;;;;5049676;28;20495;-72
2023/01/22 09:52:03;;;;;;;11.88;7.88;;;1.00;99.90;;;;;;5034809;28;20045;-72
2023/01/22 09:54:29;;;;;;;13.32;7.93;;;1.00;99.90;;;;;;5026178;28;20052;-71
2023/01/22 09:57:02;;;;;;;10.05;7.50;;;1.00;99.90;;;;;;5045380;28;20042;-71
2023/01/22 09:59:35;;;;;;;13.23;8.23;;;1.00;99.90;;;;;;5034519;28;20087;-72
2023/01/22 10:02:12;;;;;;;12.65;8.13;;;1.10;99.90;;;;;;5035371;28;20044;-72
2023/01/22 10:04:45;;;;;;;11.52;7.50;;;1.10;99.90;;;;;;5015285;28;20116;-71
2023/01/22 10:07:27;;;;;;;11.75;7.82;;;1.20;99.90;;;;;;5034469;28;20432;-71
2023/01/22 10:09:56;;;;;;;16.15;9.15;;;1.20;99.90;;;;;;5025125;28;20044;-71
2023/01/22 10:12:27;;;;;;;9.40;7.50;;;1.30;99.90;;;;;;5052241;28;20033;-71
2023/01/22 10:14:54;;;;;;;12.57;9.63;;;1.30;99.90;;;;;;5048552;28;20053;-71
2023/01/22 10:17:30;;;;;;;11.50;7.93;;;1.30;99.90;;;;;;5048765;28;20738;-71
2023/01/22 10:20:00;;;;;;;13.75;8.25;;;1.30;99.90;;;;;;5034222;28;20055;-70
2023/01/22 10:22:26;;;;;;;11.60;7.65;;;1.30;99.90;;;;;;5035206;28;20052;-73
2023/01/22 10:24:53;;;;;;;11.30;7.82;;;1.40;99.90;;;;;;5027952;28;20421;-71
2023/01/22 10:27:23;;;;;;;10.80;8.32;;;1.40;99.90;;;;;;5042595;28;20044;-71
2023/01/22 10:30:18;;;;;;;9.50;7.55;;;1.40;99.90;;;;;;5052366;28;20524;-71
2023/01/22 10:32:44;;;;;;;11.10;7.40;;;1.50;99.90;;;;;;5036035;28;20041;-72
2023/01/22 10:35:18;;;;;;;12.00;7.80;;;1.70;99.90;;;;;;5033559;28;20048;-72
2023/01/22 10:37:48;;;;;;;11.40;6.80;;;1.80;99.90;;;;;;5034036;28;20084;-73
2023/01/22 10:40:21;;;;;;;10.90;6.93;;;2.00;99.90;;;;;;5033974;28;20063;-73
2023/01/22 10:43:18;;;;;;;9.50;6.57;;;2.20;99.90;;;;;;5051930;28;20678;-72
2023/01/22 10:46:05;;;;;;;11.02;6.97;;;2.20;99.90;;;;;;5048173;28;20095;-71
2023/01/22 10:48:32;;;;;;;11.52;7.57;;;2.30;99.90;;;;;;5031613;28;20106;-71
2023/01/22 10:51:18;;;;;;;8.02;6.95;;;2.20;99.90;;;;;;5034394;28;20543;-71
2023/01/22 10:53:48;;;;;;;10.13;7.13;;;2.10;99.90;;;;;;5052161;28;20048;-71
2023/01/22 10:56:29;;;;;;;9.73;6.70;;;2.00;99.90;;;;;;5051957;28;20103;-72
2023/01/22 10:58:56;;;;;;;8.88;6.93;;;1.90;99.90;;;;;;5051918;28;20045;-71
2023/01/22 11:01:34;;;;;;;12.77;7.32;;;1.90;99.90;;;;;;5051232;28;20049;-71
2023/01/22 11:04:22;;;;;;;10.52;7.53;;;2.00;99.90;;;;;;5050327;28;20114;-72
2023/01/22 11:07:26;;;;;;;8.65;6.75;;;2.10;99.90;;;;;;5034087;28;20362;-72
2023/01/22 11:09:51;;;;;;;10.43;6.35;;;2.20;99.90;;;;;;5050962;28;20032;-72
2023/01/22 11:12:27;;;;;;;10.10;6.47;;;2.30;99.90;;;;;;5051774;28;20041;-72
2023/01/22 11:15:22;;;;;;;9.57;6.63;;;2.30;99.90;;;;;;5051036;28;20045;-73
2023/01/22 11:18:00;;;;;;;13.88;7.50;;;2.40;99.90;;;;;;5026422;28;20059;-74
2023/01/22 11:20:31;;;;;;;9.73;6.35;;;2.50;99.90;;;;;;5033849;28;20045;-74
2023/01/22 11:23:43;;;;;;;9.73;7.00;;;2.60;99.90;;;;;;5050814;28;20084;-74
2023/01/22 11:26:18;;;;;;;9.68;5.88;;;2.60;99.90;;;;;;5026247;28;20512;-75
2023/01/22 11:29:04;;;;;;;9.20;6.45;;;2.50;99.90;;;;;;5051224;28;20627;-77
2023/01/22 11:31:48;;;;;;;7.88;5.72;;;2.50;99.90;;;;;;5033421;28;20124;-74
2023/01/22 11:34:26;;;;;;;8.35;6.40;;;2.50;99.90;;;;;;5033340;28;20045;-74
2023/01/22 11:37:12;;;;;;;10.05;6.13;;;2.60;99.90;;;;;;5024771;28;20411;-74
2023/01/22 11:40:08;;;;;;;7.70;5.97;;;2.60;99.90;;;;;;5033570;28;20105;-75
2023/01/22 11:42:49;;;;;;;9.10;5.80;;;2.80;99.90;;;;;;5029667;28;20069;-74
2023/01/22 11:45:30;;;;;;;8.93;6.13;;;2.80;99.90;;;;;;5029427;28;20068;-74
2023/01/22 11:48:17;;;;;;;9.90;6.10;;;2.90;99.90;;;;;;5051319;28;20040;-75
2023/01/22 11:50:57;;;;;;;9.75;6.25;;;2.90;99.90;;;;;;5032855;28;20380;-76
2023/01/22 11:53:45;;;;;;;9.55;6.15;;;3.00;99.90;;;;;;5043759;28;20040;-76
2023/01/22 11:56:41;;;;;;;8.90;6.05;;;3.00;99.90;;;;;;5033085;28;20048;-75
2023/01/22 11:59:27;;;;;;;9.18;5.90;;;3.00;99.90;;;;;;4972519;28;20058;-76
2023/01/22 12:01:58;;;;;;;8.57;5.47;;;3.10;99.90;;;;;;4981707;28;20050;-77
2023/01/22 12:04:36;;;;;;;9.50;6.40;;;3.00;99.90;;;;;;4972205;28;20442;-76
2023/01/22 12:07:12;;;;;;;10.82;5.97;;;2.90;99.90;;;;;;4989170;28;20046;-76
2023/01/22 12:10:11;;;;;;;9.95;6.82;;;2.90;99.90;;;;;;4972955;28;20057;-77
2023/01/22 12:13:15;;;;;;;10.30;6.57;;;2.90;99.90;;;;;;4971835;28;20038;-76
2023/01/22 12:15:52;;;;;;;13.15;6.78;;;2.80;99.90;;;;;;4972901;28;20042;-78
2023/01/22 12:18:40;;;;;;;10.10;6.72;;;2.80;99.90;;;;;;4988861;28;20053;-77
2023/01/22 12:21:45;;;;;;;11.13;7.40;;;2.70;99.90;;;;;;4973160;28;20120;-77
2023/01/22 12:24:31;;;;;;;11.10;7.60;;;2.70;99.90;;;;;;4972922;28;20061;-77
2023/01/22 12:27:29;;;;;;;10.98;6.70;;;2.70;99.90;;;;;;4972381;28;20046;-77
2023/01/22 12:30:14;;;;;;;9.52;7.15;;;2.70;99.90;;;;;;4947115;28;20057;-77
2023/01/22 12:32:51;;;;;;;13.02;7.00;;;2.70;99.90;;;;;;4982832;28;20162;-77
2023/01/22 12:35:22;;;;;;;10.77;7.43;;;2.70;99.90;;;;;;4981223;28;20130;-76
2023/01/22 12:37:57;;;;;;;11.30;7.45;;;2.60;99.90;;;;;;5032855;28;20408;-77
2023/01/22 12:40:36;;;;;;;11.93;7.53;;;2.60;99.90;;;;;;5032242;28;20044;-77
2023/01/22 12:43:05;;;;;;;10.07;7.22;;;2.60;99.90;;;;;;5040875;28;20041;-77
2023/01/22 12:45:56;;;;;;;12.25;7.45;;;2.60;99.90;;;;;;5049237;28;20063;-78
2023/01/22 12:48:32;;;;;;;11.15;7.47;;;2.60;99.90;;;;;;5032590;28;20033;-76
2023/01/22 12:50:58;;;;;;;13.65;7.47;;;2.60;99.90;;;;;;5032455;28;20126;-77
2023/01/22 12:53:29;;;;;;;14.55;7.93;;;2.60;99.90;;;;;;5049757;28;20071;-76
2023/01/22 12:56:07;;;;;;;11.27;7.68;;;2.60;99.90;;;;;;5023398;28;20045;-76
2023/01/22 12:58:36;;;;;;;11.32;7.65;;;2.70;99.90;;;;;;5050394;28;20123;-76
2023/01/22 13:01:10;;;;;;;13.65;7.80;;;2.70;99.90;;;;;;5049385;28;20040;-75
2023/01/22 13:03:40;;;;;;;13.27;7.78;;;2.70;99.90;;;;;;5031955;28;20063;-75
2023/01/22 13:06:28;;;;;;;;;;;2.60;99.90;;;;;;5032659;28;20099;-76
2023/01/22 13:08:53;;;;;;;9.93;6.75;;;2.60;99.90;;;;;;5031941;28;19986;-76
2023/01/22 13:11:34;;;;;;;11.52;7.40;;;2.60;99.90;;;;;;5032065;28;20410;-75